Terminal Aerodrome Forecast
Issued by NWS

Home | Current Version | Previous Version | Text Only | Print | Product List | Glossary On
Versions: 1 2 3 4 5 6 7 8 9 10 11 12 13 14 15 16 17 18 19 20 21
963
FTUS43 KDVN 221738
TAFBRL
TAF
KBRL 221738Z 2218/2318 33011G18KT P6SM OVC040
     FM222100 35005KT P6SM SKC
     FM230000 VRB03KT P6SM SKC
     FM231600 23005KT P6SM SKC=

USA.gov is the U.S. government's official web portal to all federal, state and local government web resources and services.